Time;durP1;ratioP1;P1;durP2;ratioP2;P2;SDS_P1;SDS_P2;PMS_P1;PMS_P2;Temp;Humidity;BMP_temperature;BMP_pressure;BME280_temperature;BME280_humidity;BME280_pressure;Samples;Min_cycle;Max_cycle;Signal;HPM_P1;HPM_P2
2022/10/11 00:01:01;;;;;;;2.00;1.77;;;;;;;-143.84;73.73;45110.00;5133262;27;20442;-74
2022/10/11 00:03:28;;;;;;;3.23;2.03;;;;;;;-143.84;73.77;45123.34;5133168;27;20439;-74
2022/10/11 00:05:56;;;;;;;5.57;2.10;;;;;;;-143.84;73.81;45125.22;5133579;27;20437;-74
2022/10/11 00:08:23;;;;;;;2.03;1.93;;;;;;;-143.84;74.12;45100.47;5133226;27;20433;-74
2022/10/11 00:10:57;;;;;;;7.00;2.77;;;;;;;-143.84;74.24;45125.22;5133525;27;20445;-74
2022/10/11 00:13:24;;;;;;;2.93;2.10;;;;;;;-143.84;74.28;45117.63;5133364;27;20466;-74
2022/10/11 00:15:53;;;;;;;6.00;2.10;;;;;;;-143.84;74.68;45090.97;5132992;27;20441;-74
2022/10/11 00:18:21;;;;;;;2.43;2.23;;;;;;;-143.84;74.78;45123.34;5133079;27;21345;-74
2022/10/11 00:20:48;;;;;;;5.37;2.03;;;;;;;-143.84;74.66;45106.19;5133327;27;20468;-74
2022/10/11 00:23:15;;;;;;;4.80;2.10;;;;;;;-143.84;74.98;45117.63;5133228;27;20440;-74
2022/10/11 00:25:42;;;;;;;4.80;2.00;;;;;;;-143.84;75.13;45117.63;5133026;27;20482;-75
2022/10/11 00:28:09;;;;;;;5.53;2.80;;;;;;;-143.84;75.13;45092.88;5132710;27;20430;-74
2022/10/11 00:30:37;;;;;;;2.70;2.23;;;;;;;-143.84;75.16;45110.00;5133018;27;20510;-74
2022/10/11 00:33:05;;;;;;;6.20;2.10;;;;;;;-143.84;75.46;45129.03;5133151;27;20439;-74
2022/10/11 00:35:32;;;;;;;4.03;2.07;;;;;;;-143.84;75.42;45115.72;5132839;27;20494;-74
2022/10/11 00:37:59;;;;;;;2.40;2.20;;;;;;;-143.84;75.68;45125.22;5132918;27;20824;-74
2022/10/11 00:40:27;;;;;;;3.50;2.07;;;;;;;-143.84;75.81;45110.00;5132873;27;20434;-74
2022/10/11 00:42:54;;;;;;;10.30;2.30;;;;;;;-143.84;76.13;45123.34;5132660;27;20441;-74
2022/10/11 00:46:12;;;;;;;3.00;2.50;;;;;;;-143.84;75.98;45115.72;5132809;27;21005;-74
2022/10/11 00:48:44;;;;;;;4.57;2.63;;;;;;;-143.84;76.21;45115.72;5132907;27;20502;-74
2022/10/11 00:51:18;;;;;;;2.30;2.10;;;;;;;-143.84;76.08;45111.91;5132607;27;20457;-74
2022/10/11 00:53:47;;;;;;;2.20;2.00;;;;;;;-143.84;76.43;45104.28;5132958;27;20978;-75
2022/10/11 00:56:20;;;;;;;2.73;2.00;;;;;;;-143.84;76.33;45111.91;5132649;27;20942;-75
2022/10/11 00:58:48;;;;;;;1.70;1.60;;;;;;;-143.84;76.19;45100.47;5132396;27;20470;-74
2022/10/11 01:01:16;;;;;;;2.73;1.93;;;;;;;-143.84;76.69;45125.22;5132473;27;20429;-74
2022/10/11 01:03:44;;;;;;;6.60;1.83;;;;;;;-143.84;76.72;45092.88;5132704;27;20546;-75
2022/10/11 01:06:12;;;;;;;2.53;2.33;;;;;;;-143.84;76.77;45117.63;5132308;27;20493;-75
2022/10/11 01:08:39;;;;;;;5.33;2.40;;;;;;;-143.84;76.87;45121.44;5132285;27;20453;-75
2022/10/11 01:11:07;;;;;;;3.43;2.03;;;;;;;-143.84;76.74;45117.63;5114427;27;20839;-74
2022/10/11 01:13:48;;;;;;;3.93;2.03;;;;;;;-143.84;76.71;45106.19;5132081;27;20430;-74
2022/10/11 01:16:24;;;;;;;4.23;2.33;;;;;;;-143.84;76.98;45132.84;5132062;27;20441;-74
2022/10/11 01:19:03;;;;;;;5.90;2.30;;;;;;;-143.84;76.72;45108.09;5131949;27;20481;-74
2022/10/11 01:21:39;;;;;;;7.33;1.90;;;;;;;-143.84;77.11;45117.63;5132100;27;20444;-75
2022/10/11 01:24:27;;;;;;;4.40;1.80;;;;;;;-143.84;76.88;45127.13;5132134;27;20943;-74
2022/10/11 01:27:32;;;;;;;3.10;2.37;;;;;;;-143.84;76.81;45134.75;5132246;27;20438;-75
2022/10/11 01:30:16;;;;;;;4.13;1.50;;;;;;;-143.84;77.09;45102.38;5111260;27;20510;-74
2022/10/11 01:32:50;;;;;;;2.23;2.03;;;;;;;-143.84;77.24;45144.28;5131557;27;20448;-74
2022/10/11 01:35:27;;;;;;;3.07;1.80;;;;;;;-143.84;77.18;45123.34;5131656;27;20445;-74
2022/10/11 01:38:00;;;;;;;3.57;1.70;;;;;;;-143.84;77.10;45110.00;5131711;27;20487;-74
2022/10/11 01:40:33;;;;;;;5.60;2.07;;;;;;;-143.84;77.03;45136.66;5131922;27;20441;-74
2022/10/11 01:43:01;;;;;;;2.50;2.30;;;;;;;-143.84;77.14;45129.03;5131580;27;20498;-74
2022/10/11 01:45:31;;;;;;;5.23;2.50;;;;;;;-143.84;77.40;45119.53;5131453;27;20503;-74
2022/10/11 01:48:04;;;;;;;2.10;2.00;;;;;;;-143.84;77.29;45119.53;5131748;27;20514;-74
2022/10/11 01:50:40;;;;;;;3.30;2.40;;;;;;;-143.84;77.32;45108.09;5131219;27;21007;-74
2022/10/11 01:53:21;;;;;;;6.50;2.50;;;;;;;-143.84;77.52;45132.84;5131221;27;20444;-74
2022/10/11 01:55:54;;;;;;;3.73;1.93;;;;;;;-143.84;77.60;45125.22;5130497;27;21060;-74
2022/10/11 01:58:31;;;;;;;3.00;2.00;;;;;;;-143.84;77.60;45119.53;5130837;27;20474;-74
2022/10/11 02:01:09;;;;;;;5.37;2.27;;;;;;;-143.84;77.69;45125.22;5130829;27;20438;-74
2022/10/11 02:03:45;;;;;;;2.73;1.90;;;;;;;-143.84;77.87;45123.34;5129843;27;20449;-74
2022/10/11 02:06:19;;;;;;;4.47;1.90;;;;;;;-143.84;78.05;45132.84;5130839;27;20444;-74
2022/10/11 02:08:53;;;;;;;5.30;2.17;;;;;;;-143.84;77.90;45113.81;5131173;27;20453;-74
2022/10/11 02:11:24;;;;;;;6.53;2.17;;;;;;;-143.84;77.74;45123.34;5131070;27;20451;-74
2022/10/11 02:13:57;;;;;;;2.10;2.00;;;;;;;-143.84;78.08;45129.03;5130997;27;20437;-74
2022/10/11 02:16:31;;;;;;;2.07;1.97;;;;;;;-143.84;78.14;45121.44;5130541;27;20449;-74
2022/10/11 02:19:01;;;;;;;9.77;2.40;;;;;;;-143.84;77.97;45136.66;5131100;27;20573;-74
2022/10/11 02:21:30;;;;;;;2.60;1.60;;;;;;;-143.84;77.96;45125.22;5131069;27;20522;-74
2022/10/11 02:24:02;;;;;;;2.80;1.90;;;;;;;-143.84;78.00;45136.66;5130782;27;20430;-73
2022/10/11 02:26:32;;;;;;;2.00;1.80;;;;;;;-143.84;77.86;45132.84;5130707;27;20457;-74
2022/10/11 02:29:03;;;;;;;2.83;2.30;;;;;;;-143.84;78.08;45117.63;5130701;27;20453;-74
2022/10/11 02:31:35;;;;;;;3.07;2.43;;;;;;;-143.84;78.01;45140.47;5130508;27;20922;-74
2022/10/11 02:34:10;;;;;;;3.00;1.70;;;;;;;-143.84;78.16;45155.69;5130979;27;20519;-74
2022/10/11 02:36:46;;;;;;;2.70;1.83;;;;;;;-143.84;78.14;45144.28;5130604;27;20486;-75
2022/10/11 02:39:18;;;;;;;10.70;2.00;;;;;;;-143.84;77.75;45125.22;5130458;27;20472;-74
2022/10/11 02:41:46;;;;;;;2.50;1.63;;;;;;;-143.84;77.84;45117.63;5130470;27;20888;-74
2022/10/11 02:44:19;;;;;;;5.30;2.03;;;;;;;-143.84;77.85;45134.75;5130293;27;20442;-74
2022/10/11 02:46:50;;;;;;;7.47;2.43;;;;;;;-143.84;77.89;45127.13;5130602;27;20437;-74
2022/10/11 02:49:19;;;;;;;1.60;1.50;;;;;;;-143.84;77.69;45127.13;5130413;27;20449;-74
2022/10/11 02:51:46;;;;;;;5.77;1.70;;;;;;;-143.84;77.80;45115.72;5130039;27;20446;-74
2022/10/11 02:54:13;;;;;;;3.00;1.90;;;;;;;-143.84;77.87;45108.09;5129755;27;20443;-74
2022/10/11 02:56:40;;;;;;;2.87;2.20;;;;;;;-143.84;77.88;45134.75;5129507;27;20819;-74
2022/10/11 02:59:07;;;;;;;1.60;1.50;;;;;;;-143.84;77.99;45110.00;5129064;27;20624;-74
2022/10/11 03:01:34;;;;;;;4.37;2.10;;;;;;;-143.84;78.17;45094.78;5129793;27;20453;-74
2022/10/11 03:04:03;;;;;;;4.00;1.67;;;;;;;-143.84;77.99;45110.00;5129948;27;20907;-74
2022/10/11 03:06:30;;;;;;;2.73;2.13;;;;;;;-143.84;77.74;45117.63;5130286;27;20457;-74
2022/10/11 03:08:57;;;;;;;3.33;1.83;;;;;;;-143.84;77.54;45146.19;5130141;27;20525;-74
2022/10/11 03:11:24;;;;;;;10.10;2.30;;;;;;;-143.84;77.55;45113.81;5130162;27;20447;-74
2022/10/11 03:13:52;;;;;;;2.87;1.87;;;;;;;-143.84;77.49;45153.81;5129905;27;20437;-74
2022/10/11 03:16:19;;;;;;;2.03;1.93;;;;;;;-143.84;77.07;45132.84;5129884;28;20526;-73
2022/10/11 03:18:47;;;;;;;4.33;1.80;;;;;;;-143.84;77.19;45121.44;5129744;28;20472;-74
2022/10/11 03:21:15;;;;;;;3.03;1.80;;;;;;;-143.84;77.37;45132.84;5129436;28;20864;-74
2022/10/11 03:23:42;;;;;;;3.77;1.90;;;;;;;-143.84;77.61;45142.38;5130346;28;20434;-74
2022/10/11 03:26:09;;;;;;;3.03;1.97;;;;;;;-143.84;77.90;45132.84;5130135;28;20459;-74
2022/10/11 03:28:36;;;;;;;3.93;2.30;;;;;;;-143.84;77.88;45129.03;5130247;27;20955;-74
2022/10/11 03:31:04;;;;;;;4.53;1.87;;;;;;;-143.84;77.76;45113.81;5134256;27;20434;-74
2022/10/11 03:33:31;;;;;;;2.13;1.83;;;;;;;-143.84;77.77;45146.19;5134258;27;21069;-74
2022/10/11 03:35:58;;;;;;;8.93;2.00;;;;;;;-143.84;78.19;45127.13;5134079;27;20437;-74
2022/10/11 03:38:27;;;;;;;4.77;1.90;;;;;;;-143.84;77.88;45144.28;5134184;27;20557;-74
2022/10/11 03:40:54;;;;;;;8.13;2.30;;;;;;;-143.84;77.86;45132.84;5134119;27;20450;-74
2022/10/11 03:43:21;;;;;;;12.53;1.80;;;;;;;-143.84;77.77;45110.00;5133991;27;20444;-74
2022/10/11 03:45:48;;;;;;;7.33;2.27;;;;;;;-143.84;77.92;45140.47;5129371;27;20465;-75
2022/10/11 03:48:15;;;;;;;3.30;1.90;;;;;;;-143.84;78.04;45129.03;5118426;27;20911;-74
2022/10/11 03:50:42;;;;;;;1.97;1.83;;;;;;;-143.84;78.15;45121.44;5133917;27;20432;-73
2022/10/11 03:53:10;;;;;;;11.13;2.03;;;;;;;-143.84;78.28;45136.66;5133298;27;20432;-73
2022/10/11 03:55:40;;;;;;;6.00;2.17;;;;;;;-143.84;78.38;45123.34;5133877;27;20442;-73
2022/10/11 03:58:07;;;;;;;2.10;1.90;;;;;;;-143.84;78.50;45136.66;5133945;27;21251;-73
2022/10/11 04:00:35;;;;;;;3.47;2.40;;;;;;;-143.84;79.02;45102.38;5132786;27;20836;-74
2022/10/11 04:03:03;;;;;;;2.13;2.00;;;;;;;-143.84;79.00;45119.53;5133438;27;20444;-74
2022/10/11 04:05:30;;;;;;;4.07;2.27;;;;;;;-143.84;78.84;45130.94;5133280;27;20508;-75
2022/10/11 04:07:57;;;;;;;4.80;2.30;;;;;;;-143.84;78.67;45102.38;5133455;27;20441;-75
2022/10/11 04:10:25;;;;;;;2.13;1.87;;;;;;;-143.84;78.51;45130.94;5133921;27;20437;-73
2022/10/11 04:12:53;;;;;;;2.60;2.40;;;;;;;-143.84;78.63;45138.56;5134191;27;20428;-75
2022/10/11 04:15:21;;;;;;;7.13;1.97;;;;;;;-143.84;78.39;45151.91;5133063;27;20864;-73
2022/10/11 04:17:48;;;;;;;4.63;2.33;;;;;;;-143.84;78.85;45106.19;5133049;27;20505;-75
2022/10/11 04:20:15;;;;;;;10.03;2.70;;;;;;;-143.84;78.92;45136.66;5133049;27;20476;-74
2022/10/11 04:22:42;;;;;;;2.80;1.97;;;;;;;-143.84;78.75;45127.13;5133410;27;20957;-75
2022/10/11 04:25:10;;;;;;;2.50;1.63;;;;;;;-143.84;78.63;45140.47;5134059;27;20438;-75
2022/10/11 04:27:37;;;;;;;5.77;2.30;;;;;;;-143.84;79.13;45127.13;5134403;27;20424;-74
2022/10/11 04:30:07;;;;;;;2.57;2.00;;;;;;;-143.84;78.92;45123.34;5133119;27;20428;-73
2022/10/11 04:32:34;;;;;;;6.50;2.77;;;;;;;-143.84;78.90;45127.13;5133401;27;20848;-76
2022/10/11 04:35:01;;;;;;;4.77;3.40;;;;;;;-143.84;78.99;45129.03;5133181;27;20445;-74
2022/10/11 04:37:28;;;;;;;2.87;2.57;;;;;;;-143.84;78.73;45117.63;5133741;27;20835;-75
2022/10/11 04:39:55;;;;;;;7.90;4.00;;;;;;;-143.84;79.11;45129.03;5132204;27;21034;-75
2022/10/11 04:42:22;;;;;;;6.30;5.80;;;;;;;-143.84;79.30;45144.28;5132655;27;20526;-75
2022/10/11 04:44:49;;;;;;;6.67;6.07;;;;;;;-143.84;79.31;45148.09;5132567;27;20473;-75
2022/10/11 04:47:19;;;;;;;11.27;9.70;;;;;;;-143.84;79.00;45134.75;5132443;27;20970;-75
2022/10/11 04:49:46;;;;;;;8.63;7.80;;;;;;;-143.84;79.32;45130.94;5132376;27;20481;-75
2022/10/11 04:52:13;;;;;;;72.57;47.90;;;;;;;-143.84;79.33;45144.28;5132073;27;20803;-75
2022/10/11 04:54:40;;;;;;;49.00;37.33;;;;;;;-143.84;79.29;45125.22;5132158;27;20445;-75
2022/10/11 04:57:07;;;;;;;60.57;43.73;;;;;;;-143.84;79.17;45098.56;5132379;27;20473;-75
2022/10/11 04:59:35;;;;;;;32.33;24.53;;;;;;;-143.84;79.50;45132.84;5132199;27;20522;-75
2022/10/11 05:02:02;;;;;;;16.60;13.50;;;;;;;-143.84;79.65;45129.03;5132254;27;20488;-75
2022/10/11 05:04:30;;;;;;;8.30;5.50;;;;;;;-143.84;79.78;45132.84;5131825;27;20478;-75
2022/10/11 05:06:57;;;;;;;15.50;11.17;;;;;;;-143.84;79.91;45153.81;5132127;27;20815;-75
2022/10/11 05:09:25;;;;;;;22.20;5.30;;;;;;;-143.84;79.63;45129.03;5131880;27;20491;-75
2022/10/11 05:11:52;;;;;;;6.40;3.70;;;;;;;-143.84;79.48;45100.47;5132321;27;20437;-75
2022/10/11 05:14:19;;;;;;;4.70;2.93;;;;;;;-143.84;79.31;45104.28;5132108;27;20516;-75
2022/10/11 05:16:46;;;;;;;6.20;2.57;;;;;;;-143.84;79.23;45161.41;5132303;27;20530;-75
2022/10/11 05:19:13;;;;;;;4.17;2.63;;;;;;;-143.84;79.28;45100.47;5131926;27;20541;-74
2022/10/11 05:21:42;;;;;;;5.37;3.03;;;;;;;-143.84;78.00;45104.28;5132031;27;20446;-75
2022/10/11 05:24:09;;;;;;;12.00;3.00;;;;;;;-143.84;75.78;45110.00;5131617;27;20446;-75
2022/10/11 05:26:36;;;;;;;12.60;2.70;;;;;;;-143.84;75.48;45119.53;5131707;27;20490;-75
2022/10/11 05:29:03;;;;;;;10.97;2.20;;;;;;;-143.84;73.71;45085.25;5131801;27;20492;-75
2022/10/11 05:31:31;;;;;;;7.70;1.97;;;;;;;-143.84;72.68;45125.22;5131304;27;21026;-75
2022/10/11 05:33:58;;;;;;;11.37;1.70;;;;;;;-143.84;70.87;45117.63;5131258;27;20538;-76
2022/10/11 05:36:26;;;;;;;11.93;1.60;;;;;;;-143.84;69.37;45092.88;5131408;27;20445;-75
2022/10/11 05:38:54;;;;;;;3.97;1.83;;;;;;;-143.84;69.24;45104.28;5131358;27;20479;-75
2022/10/11 05:41:22;;;;;;;8.63;1.60;;;;;;;-143.84;67.95;45110.00;5131374;27;20460;-75
2022/10/11 05:43:49;;;;;;;11.33;1.97;;;;;;;-143.84;66.56;45106.19;5131247;27;20436;-76
2022/10/11 05:46:17;;;;;;;3.10;2.23;;;;;;;-143.84;65.67;45106.19;5131289;27;20942;-75
2022/10/11 05:48:44;;;;;;;8.73;1.93;;;;;;;-143.84;63.54;45102.38;5131091;27;20446;-75
2022/10/11 05:51:12;;;;;;;3.17;1.53;;;;;;;-143.84;62.03;45100.47;5130529;27;20450;-75
2022/10/11 05:53:39;;;;;;;15.23;2.00;;;;;;;-143.84;61.33;45087.16;5130870;27;20438;-76
2022/10/11 05:56:18;;;;;;;5.37;1.60;;;;;;;-143.84;60.05;45064.31;5130677;27;20444;-75
2022/10/11 05:58:45;;;;;;;6.67;1.60;;;;;;;-143.84;57.95;45094.78;5130564;27;20446;-76
2022/10/11 06:01:20;;;;;;;10.90;2.23;;;;;;;-143.84;57.23;45087.16;5129503;27;20458;-76
2022/10/11 06:03:47;;;;;;;13.43;1.63;;;;;;;-143.84;57.33;45068.13;5130902;27;20444;-75
2022/10/11 06:06:14;;;;;;;4.87;1.80;;;;;;;-143.84;57.71;45073.81;5130804;27;20438;-76
2022/10/11 06:08:42;;;;;;;1.90;1.63;;;;;;;-143.84;56.70;45068.13;5130842;27;20445;-76
2022/10/11 06:11:13;;;;;;;2.50;1.80;;;;;;;-143.84;55.39;45081.44;5130792;27;20936;-76
2022/10/11 06:13:41;;;;;;;3.23;1.40;;;;;;;-143.84;53.92;45077.63;5130835;27;20442;-76
2022/10/11 06:16:09;;;;;;;7.33;1.80;;;;;;;-143.84;52.65;45047.16;5130676;27;20470;-76
2022/10/11 06:18:36;;;;;;;4.17;1.80;;;;;;;-143.84;52.69;45062.41;5130451;27;20511;-75
2022/10/11 06:21:03;;;;;;;4.13;2.03;;;;;;;-143.84;52.64;45064.31;5130651;27;20557;-75
2022/10/11 06:23:31;;;;;;;9.90;1.90;;;;;;;-143.84;51.73;45054.78;5130582;27;20427;-75
2022/10/11 06:25:59;;;;;;;4.97;1.50;;;;;;;-143.84;51.47;45062.41;5130368;27;20483;-75
2022/10/11 06:28:29;;;;;;;5.00;1.90;;;;;;;-143.84;51.68;45064.31;5130643;27;20943;-76
2022/10/11 06:30:56;;;;;;;3.63;2.03;;;;;;;-143.84;51.35;45081.44;5130460;27;20442;-75
2022/10/11 06:33:24;;;;;;;4.43;1.80;;;;;;;-143.84;52.23;45068.13;5130363;27;20515;-75
2022/10/11 06:35:58;;;;;;;2.20;1.90;;;;;;;-143.84;51.92;45047.16;5130295;27;20854;-75
2022/10/11 06:38:25;;;;;;;13.43;1.80;;;;;;;-143.84;51.30;45050.97;5130066;27;20507;-76
2022/10/11 06:40:52;;;;;;;8.20;1.40;;;;;;;-143.84;49.65;45043.34;5130207;27;20485;-76
2022/10/11 06:43:20;;;;;;;3.67;1.53;;;;;;;-143.84;49.31;45041.44;5130234;27;20966;-76
2022/10/11 06:45:49;;;;;;;11.50;1.83;;;;;;;-143.84;49.39;45098.56;5130118;27;20438;-76
2022/10/11 06:48:16;;;;;;;7.03;1.80;;;;;;;-143.84;49.24;45054.78;5130160;27;20454;-75
2022/10/11 06:50:43;;;;;;;6.27;2.00;;;;;;;-143.84;48.83;45073.81;5130070;27;20506;-75
2022/10/11 06:53:13;;;;;;;3.57;1.87;;;;;;;-143.84;48.48;45037.66;5131412;27;20495;-76
2022/10/11 06:55:40;;;;;;;1.73;1.43;;;;;;;-143.84;46.86;45043.34;5132284;27;20758;-76
2022/10/11 06:58:08;;;;;;;1.97;1.20;;;;;;;-143.84;47.31;45030.03;5132107;27;20422;-76
2022/10/11 07:00:35;;;;;;;6.03;1.80;;;;;;;-143.84;46.51;45054.78;5132023;27;20478;-76
2022/10/11 07:03:03;;;;;;;1.83;1.30;;;;;;;-143.84;46.39;45056.69;5131813;27;20442;-76
2022/10/11 07:05:33;;;;;;;5.40;1.33;;;;;;;-143.84;47.57;45054.78;5131943;27;20482;-76
2022/10/11 07:08:00;;;;;;;2.03;1.60;;;;;;;-143.84;47.09;45068.13;5131662;27;20955;-76
2022/10/11 07:10:28;;;;;;;2.00;1.50;;;;;;;-143.84;47.19;45064.31;5132388;27;20507;-76
2022/10/11 07:12:55;;;;;;;5.47;1.60;;;;;;;-143.84;46.86;45049.06;5132417;27;20422;-76
2022/10/11 07:15:22;;;;;;;3.37;1.57;;;;;;;-143.84;47.15;45049.06;5132010;27;20441;-76
2022/10/11 07:17:49;;;;;;;3.40;1.60;;;;;;;-143.84;45.79;45041.44;5131889;28;20445;-76
2022/10/11 07:20:18;;;;;;;5.23;1.70;;;;;;;-143.84;46.29;45030.03;5132030;28;20485;-76
2022/10/11 07:22:45;;;;;;;8.97;1.87;;;;;;;-143.84;44.50;45041.44;5131896;28;20499;-76
2022/10/11 07:25:12;;;;;;;2.10;1.60;;;;;;;-143.84;44.38;45031.94;5131915;28;20972;-76
2022/10/11 07:27:39;;;;;;;2.70;1.33;;;;;;;-143.84;42.75;45031.94;5132248;28;20434;-76
2022/10/11 07:30:07;;;;;;;1.87;1.20;;;;;;;-143.84;42.66;45039.53;5132184;28;20936;-76
2022/10/11 07:32:34;;;;;;;4.10;1.37;;;;;;;-143.84;42.74;45043.34;5132409;28;20486;-76
2022/10/11 07:35:02;;;;;;;5.93;1.53;;;;;;;-143.84;41.91;45018.59;5131747;28;20939;-76
2022/10/11 07:37:30;;;;;;;3.13;1.13;;;;;;;-143.84;42.00;45030.03;5132103;28;20473;-76
2022/10/11 07:39:57;;;;;;;4.27;1.50;;;;;;;-143.84;40.88;45014.78;5131804;28;20566;-76
2022/10/11 07:42:24;;;;;;;8.60;1.13;;;;;;;-143.84;40.90;45045.25;5132030;28;20429;-76
2022/10/11 07:44:51;;;;;;;2.03;1.70;;;;;;;-143.84;41.56;45026.22;5131769;28;20490;-76
2022/10/11 07:47:19;;;;;;;1.50;1.40;;;;;;;-143.84;40.99;45031.94;5131608;28;20434;-76
2022/10/11 07:49:46;;;;;;;3.40;1.53;;;;;;;-143.84;41.17;45020.50;5131623;28;20870;-76
2022/10/11 07:52:13;;;;;;;10.33;1.80;;;;;;;-143.84;40.64;45031.94;5131873;28;20438;-76
2022/10/11 07:54:41;;;;;;;4.30;1.40;;;;;;;-143.84;39.33;45033.84;5132062;28;20422;-76
2022/10/11 07:57:09;;;;;;;3.83;1.87;;;;;;;-143.84;39.97;45012.88;5131508;28;20449;-76
2022/10/11 07:59:36;;;;;;;5.70;1.40;;;;;;;-143.84;39.35;45012.88;5131506;28;20470;-76
2022/10/11 08:02:03;;;;;;;1.80;1.33;;;;;;;-143.84;39.36;45028.13;5131794;28;21010;-76
2022/10/11 08:04:30;;;;;;;5.17;1.80;;;;;;;-143.84;39.47;45012.88;5131177;28;20485;-76
2022/10/11 08:06:57;;;;;;;3.10;1.67;;;;;;;-143.84;37.86;45012.88;5131525;28;20442;-76
2022/10/11 08:09:24;;;;;;;2.07;1.50;;;;;;;-143.84;38.34;45005.28;5131416;28;20434;-76
2022/10/11 08:11:53;;;;;;;3.40;1.50;;;;;;;-143.84;38.29;44995.75;5131981;28;20490;-76
2022/10/11 08:14:20;;;;;;;1.50;1.17;;;;;;;-143.84;38.54;45016.69;5131430;27;20442;-76
2022/10/11 08:16:48;;;;;;;5.23;1.93;;;;;;;-143.84;37.41;44997.66;5135559;27;20881;-76
2022/10/11 08:19:17;;;;;;;5.30;1.30;;;;;;;-143.84;38.28;45052.88;5135649;27;20430;-76
2022/10/11 08:21:44;;;;;;;4.77;1.57;;;;;;;-143.84;38.26;45016.69;5135489;27;20498;-76
2022/10/11 08:24:12;;;;;;;8.47;1.83;;;;;;;-143.84;38.09;45010.97;5135313;27;20478;-76
2022/10/11 08:26:40;;;;;;;4.83;1.83;;;;;;;-143.84;38.49;44999.56;5135045;27;20510;-76
2022/10/11 08:29:13;;;;;;;3.97;1.80;;;;;;;-143.84;38.35;45024.31;5135166;27;20430;-76
2022/10/11 08:31:40;;;;;;;3.10;1.57;;;;;;;-143.84;37.07;45009.09;5135351;27;20558;-76
2022/10/11 08:34:07;;;;;;;2.87;1.20;;;;;;;-143.84;36.36;45039.53;5135356;27;20446;-76
2022/10/11 08:36:34;;;;;;;4.20;1.60;;;;;;;-143.84;36.72;45003.38;5135301;27;20935;-76
2022/10/11 08:39:01;;;;;;;4.43;1.40;;;;;;;-143.84;37.47;45033.84;5135136;27;20499;-76
2022/10/11 08:41:37;;;;;;;5.03;1.60;;;;;;;-143.84;36.64;45003.38;5134748;27;20529;-76
2022/10/11 08:44:20;;;;;;;7.43;1.03;;;;;;;-143.84;36.41;45020.50;5134084;27;20422;-76
2022/10/11 08:46:51;;;;;;;1.20;0.90;;;;;;;-143.84;36.62;45022.41;5134455;27;20499;-75
2022/10/11 08:49:22;;;;;;;3.27;1.10;;;;;;;-143.84;36.27;45010.97;5134969;27;20499;-75
2022/10/11 08:51:58;;;;;;;3.40;1.50;;;;;;;-143.84;36.10;45012.88;5135177;27;20430;-76
2022/10/11 08:54:35;;;;;;;3.23;1.13;;;;;;;-143.84;36.59;45064.31;5134052;27;20430;-76
2022/10/11 08:57:05;;;;;;;2.17;1.30;;;;;;;-143.84;35.93;45009.09;5133830;27;20487;-75
2022/10/11 08:59:42;;;;;;;6.73;1.20;;;;;;;-143.84;36.21;45016.69;5132670;27;20872;-75
2022/10/11 09:02:24;;;;;;;1.10;1.00;;;;;;;-143.84;35.28;45030.03;5133686;27;20465;-76
2022/10/11 09:04:53;;;;;;;1.53;1.37;;;;;;;-143.84;36.13;45022.41;5123434;27;20510;-76
2022/10/11 09:07:33;;;;;;;2.00;1.23;;;;;;;-143.84;35.44;44995.75;5114008;28;20472;-76
2022/10/11 09:10:26;;;;;;;4.40;1.23;;;;;;;-143.84;35.21;45012.88;5113693;28;20508;-76
2022/10/11 09:13:04;;;;;;;1.43;1.10;;;;;;;-143.84;35.56;45031.94;5113417;28;20435;-76
2022/10/11 09:15:45;;;;;;;3.07;1.40;;;;;;;-143.84;35.62;45028.13;5113359;28;20803;-75
2022/10/11 09:18:42;;;;;;;3.40;1.20;;;;;;;-143.84;35.48;44999.56;5113267;28;20446;-75
2022/10/11 09:21:28;;;;;;;3.10;1.03;;;;;;;-143.84;35.40;44991.94;5111823;28;20539;-75
2022/10/11 09:24:19;;;;;;;2.07;1.40;;;;;;;-143.84;35.23;44984.31;5113291;28;21020;-75
2022/10/11 09:26:55;;;;;;;1.50;1.10;;;;;;;-143.84;35.66;45039.53;5113470;28;20488;-75
2022/10/11 09:29:39;;;;;;;5.70;1.13;;;;;;;-143.84;35.59;45028.13;5113044;28;20918;-75
2022/10/11 09:32:14;;;;;;;1.90;1.20;;;;;;;-143.84;35.59;45037.66;5112832;28;20447;-75
2022/10/11 09:34:42;;;;;;;3.30;1.37;;;;;;;-143.84;35.36;45010.97;5113451;28;21176;-75
2022/10/11 09:37:21;;;;;;;3.20;1.20;;;;;;;-143.84;36.15;45009.09;5112975;28;20488;-75
2022/10/11 09:39:53;;;;;;;2.97;1.43;;;;;;;-143.84;34.94;45012.88;5112887;28;20435;-75
2022/10/11 09:42:21;;;;;;;1.60;1.00;;;;;;;-143.84;35.05;45020.50;5113439;28;20431;-75
2022/10/11 09:44:50;;;;;;;4.50;1.30;;;;;;;-143.84;34.75;45007.19;5112880;28;20451;-75
2022/10/11 09:47:21;;;;;;;1.27;0.93;;;;;;;-143.84;35.05;45016.69;5113223;28;20427;-75
2022/10/11 09:49:53;;;;;;;2.53;1.27;;;;;;;-143.84;34.87;45007.19;5113008;28;20508;-75
2022/10/11 09:52:22;;;;;;;2.00;1.17;;;;;;;-143.84;34.65;45001.47;5113163;28;20432;-75
2022/10/11 09:54:51;;;;;;;2.13;1.40;;;;;;;-143.84;34.65;45018.59;5113062;28;20435;-75
2022/10/11 09:57:24;;;;;;;6.03;1.17;;;;;;;-143.84;34.75;44990.03;5113269;28;20447;-75
2022/10/11 10:00:03;;;;;;;1.60;1.03;;;;;;;-143.84;35.10;45056.69;5113473;28;20423;-75
2022/10/11 10:02:40;;;;;;;4.07;1.13;;;;;;;-143.84;35.45;45007.19;5113299;28;20445;-75
2022/10/11 10:05:18;;;;;;;2.03;1.70;;;;;;;-143.84;35.22;45010.97;5112779;28;20923;-76
2022/10/11 10:08:05;;;;;;;11.33;1.67;;;;;;;-143.84;35.43;45045.25;5112919;28;20464;-76
2022/10/11 10:10:39;;;;;;;4.33;1.60;;;;;;;-143.84;35.20;45018.59;5112837;28;20982;-75
2022/10/11 10:13:19;;;;;;;1.50;1.20;;;;;;;-143.84;35.77;44997.66;5111968;28;20434;-75
2022/10/11 10:15:48;;;;;;;1.40;1.30;;;;;;;-143.84;36.53;45020.50;5112357;28;20484;-75
2022/10/11 10:18:23;;;;;;;1.80;1.47;;;;;;;-143.84;35.76;45003.38;5111566;28;20469;-75
2022/10/11 10:20:53;;;;;;;3.43;1.50;;;;;;;-143.84;35.77;45026.22;5111940;28;20933;-75
2022/10/11 10:23:24;;;;;;;1.87;0.90;;;;;;;-143.84;35.75;45007.19;5110893;28;20471;-75
2022/10/11 10:26:09;;;;;;;4.03;1.77;;;;;;;-143.84;36.59;45014.78;5110793;28;20515;-75
2022/10/11 10:28:36;;;;;;;5.30;1.20;;;;;;;-143.84;36.87;45030.03;5111021;28;20860;-75
2022/10/11 10:31:03;;;;;;;1.73;1.33;;;;;;;-143.84;37.24;45022.41;5110880;28;20431;-75
2022/10/11 10:33:34;;;;;;;3.47;1.70;;;;;;;-143.84;37.36;45031.94;5111061;28;20447;-75
2022/10/11 10:36:05;;;;;;;1.73;1.17;;;;;;;-143.84;37.21;45026.22;5110894;28;20443;-75
2022/10/11 10:38:36;;;;;;;1.83;1.00;;;;;;;-143.84;36.31;45022.41;5110961;28;20439;-75
2022/10/11 10:41:06;;;;;;;1.90;0.90;;;;;;;-143.84;37.72;44999.56;5111279;28;20467;-75
2022/10/11 10:43:35;;;;;;;15.80;1.63;;;;;;;-143.84;37.37;45024.31;5111677;28;20935;-75
2022/10/11 10:46:15;;;;;;;4.37;1.30;;;;;;;-143.84;38.02;45028.13;5112079;28;20947;-75
2022/10/11 10:48:54;;;;;;;4.70;1.40;;;;;;;-143.84;37.37;45024.31;5111705;28;20443;-75
2022/10/11 10:51:29;;;;;;;1.50;1.40;;;;;;;-143.84;37.23;45054.78;5112425;28;20435;-76
2022/10/11 10:54:05;;;;;;;7.00;1.70;;;;;;;-143.84;37.07;45035.75;5111966;28;20488;-75
2022/10/11 10:56:40;;;;;;;3.13;1.13;;;;;;;-143.84;37.15;45016.69;5111376;28;20819;-76
2022/10/11 10:59:25;;;;;;;7.60;1.23;;;;;;;-143.84;37.10;45007.19;5112233;28;20470;-76
2022/10/11 11:02:00;;;;;;;2.60;1.20;;;;;;;-143.84;37.44;45037.66;5112080;28;20475;-76
2022/10/11 11:04:33;;;;;;;2.30;1.03;;;;;;;-143.84;37.50;45003.38;5112060;28;20527;-76
2022/10/11 11:07:05;;;;;;;1.63;1.10;;;;;;;-143.84;37.90;45039.53;5111898;28;20500;-76
2022/10/11 11:09:43;;;;;;;7.27;1.53;;;;;;;-143.84;37.75;45018.59;5111076;28;20439;-76
2022/10/11 11:12:31;;;;;;;8.23;1.77;;;;;;;-143.84;38.12;45016.69;5112364;28;20491;-76
2022/10/11 11:15:04;;;;;;;2.90;1.20;;;;;;;-143.84;38.02;45049.06;5112554;28;20917;-76
2022/10/11 11:17:45;;;;;;;3.80;1.20;;;;;;;-143.84;38.58;45018.59;5112053;28;20431;-76
2022/10/11 11:20:26;;;;;;;4.03;1.20;;;;;;;-143.84;37.98;45024.31;5112369;28;20427;-76
2022/10/11 11:23:00;;;;;;;3.17;1.30;;;;;;;-143.84;38.04;44995.75;5112134;28;20442;-76
2022/10/11 11:25:41;;;;;;;4.60;1.83;;;;;;;-143.84;38.89;45010.97;5111242;28;20525;-75
2022/10/11 11:28:26;;;;;;;2.60;1.57;;;;;;;-143.84;38.34;45003.38;5111344;28;20443;-75
2022/10/11 11:31:02;;;;;;;2.07;1.77;;;;;;;-143.84;38.42;45014.78;5111723;28;20432;-75
2022/10/11 11:33:40;;;;;;;6.10;1.70;;;;;;;-143.84;38.63;45018.59;5111777;28;20446;-75